sensor_id;sensor_type;location;lat;lon;timestamp;P1;durP1;ratioP1;P2;durP2;ratioP2
41466;SDS011;27205;53.690;19.948;2022-10-17T00:00:38;10.20;;;9.40;;
41466;SDS011;27205;53.690;19.948;2022-10-17T00:06:03;11.40;;;10.60;;
41466;SDS011;27205;53.690;19.948;2022-10-17T00:11:10;11.60;;;10.80;;
41466;SDS011;27205;53.690;19.948;2022-10-17T00:16:25;10.70;;;10.00;;
41466;SDS011;27205;53.690;19.948;2022-10-17T00:21:33;12.70;;;11.80;;
41466;SDS011;27205;53.690;19.948;2022-10-17T00:26:35;13.20;;;12.20;;
41466;SDS011;27205;53.690;19.948;2022-10-17T00:31:37;8.80;;;8.10;;
41466;SDS011;27205;53.690;19.948;2022-10-17T00:36:38;9.00;;;8.20;;
41466;SDS011;27205;53.690;19.948;2022-10-17T00:41:40;9.30;;;8.60;;
41466;SDS011;27205;53.690;19.948;2022-10-17T00:46:42;9.50;;;8.80;;
41466;SDS011;27205;53.690;19.948;2022-10-17T00:51:54;9.40;;;8.70;;
41466;SDS011;27205;53.690;19.948;2022-10-17T00:56:59;8.60;;;8.00;;
41466;SDS011;27205;53.690;19.948;2022-10-17T01:02:03;8.80;;;8.20;;
41466;SDS011;27205;53.690;19.948;2022-10-17T01:07:07;9.90;;;9.10;;
41466;SDS011;27205;53.690;19.948;2022-10-17T01:22:26;9.60;;;8.90;;
41466;SDS011;27205;53.690;19.948;2022-10-17T01:33:02;9.30;;;8.70;;
41466;SDS011;27205;53.690;19.948;2022-10-17T01:38:23;8.50;;;7.90;;
41466;SDS011;27205;53.690;19.948;2022-10-17T01:43:52;7.80;;;7.20;;
41466;SDS011;27205;53.690;19.948;2022-10-17T01:49:00;10.50;;;9.70;;
41466;SDS011;27205;53.690;19.948;2022-10-17T01:59:14;14.70;;;13.40;;
41466;SDS011;27205;53.690;19.948;2022-10-17T02:04:20;15.10;;;13.90;;
41466;SDS011;27205;53.690;19.948;2022-10-17T02:09:23;46.70;;;16.90;;
41466;SDS011;27205;53.690;19.948;2022-10-17T02:14:31;28.90;;;12.70;;
41466;SDS011;27205;53.690;19.948;2022-10-17T02:25:35;41.50;;;37.40;;
41466;SDS011;27205;53.690;19.948;2022-10-17T02:30:52;16.30;;;14.90;;
41466;SDS011;27205;53.690;19.948;2022-10-17T02:35:59;12.80;;;11.90;;
41466;SDS011;27205;53.690;19.948;2022-10-17T02:41:08;10.80;;;10.00;;
41466;SDS011;27205;53.690;19.948;2022-10-17T02:46:13;10.60;;;9.70;;
41466;SDS011;27205;53.690;19.948;2022-10-17T02:57:04;10.80;;;9.90;;
41466;SDS011;27205;53.690;19.948;2022-10-17T03:02:11;10.10;;;9.30;;
41466;SDS011;27205;53.690;19.948;2022-10-17T03:07:13;10.50;;;9.80;;
41466;SDS011;27205;53.690;19.948;2022-10-17T03:12:15;10.10;;;9.40;;
41466;SDS011;27205;53.690;19.948;2022-10-17T03:17:16;10.00;;;9.20;;
41466;SDS011;27205;53.690;19.948;2022-10-17T03:22:18;11.30;;;10.40;;
41466;SDS011;27205;53.690;19.948;2022-10-17T03:27:20;11.30;;;10.40;;
41466;SDS011;27205;53.690;19.948;2022-10-17T03:32:22;10.80;;;9.90;;
41466;SDS011;27205;53.690;19.948;2022-10-17T03:37:24;10.80;;;10.00;;
41466;SDS011;27205;53.690;19.948;2022-10-17T03:42:26;11.20;;;10.40;;
41466;SDS011;27205;53.690;19.948;2022-10-17T03:47:28;10.30;;;9.50;;
41466;SDS011;27205;53.690;19.948;2022-10-17T03:52:30;11.50;;;10.50;;
41466;SDS011;27205;53.690;19.948;2022-10-17T03:57:33;10.50;;;9.50;;
41466;SDS011;27205;53.690;19.948;2022-10-17T04:07:38;10.20;;;9.40;;
41466;SDS011;27205;53.690;19.948;2022-10-17T04:12:40;8.70;;;8.10;;
41466;SDS011;27205;53.690;19.948;2022-10-17T04:17:42;30.20;;;10.90;;
41466;SDS011;27205;53.690;19.948;2022-10-17T04:22:44;57.20;;;24.60;;
41466;SDS011;27205;53.690;19.948;2022-10-17T04:27:45;38.70;;;21.20;;
41466;SDS011;27205;53.690;19.948;2022-10-17T04:32:49;30.90;;;27.40;;
41466;SDS011;27205;53.690;19.948;2022-10-17T04:37:51;30.60;;;28.10;;
41466;SDS011;27205;53.690;19.948;2022-10-17T04:42:53;26.40;;;24.30;;
41466;SDS011;27205;53.690;19.948;2022-10-17T04:47:55;22.50;;;20.70;;
41466;SDS011;27205;53.690;19.948;2022-10-17T04:52:58;17.90;;;14.60;;
41466;SDS011;27205;53.690;19.948;2022-10-17T04:58:00;16.70;;;15.30;;
41466;SDS011;27205;53.690;19.948;2022-10-17T05:03:02;16.90;;;15.50;;
41466;SDS011;27205;53.690;19.948;2022-10-17T05:08:04;11.20;;;10.30;;
41466;SDS011;27205;53.690;19.948;2022-10-17T05:13:07;9.60;;;8.80;;
41466;SDS011;27205;53.690;19.948;2022-10-17T05:18:10;9.40;;;8.60;;
41466;SDS011;27205;53.690;19.948;2022-10-17T05:23:12;9.10;;;8.40;;
41466;SDS011;27205;53.690;19.948;2022-10-17T05:28:14;8.40;;;7.50;;
41466;SDS011;27205;53.690;19.948;2022-10-17T05:33:16;8.30;;;7.80;;
41466;SDS011;27205;53.690;19.948;2022-10-17T05:38:18;8.30;;;7.70;;
41466;SDS011;27205;53.690;19.948;2022-10-17T05:43:20;10.30;;;9.30;;
41466;SDS011;27205;53.690;19.948;2022-10-17T05:48:22;10.70;;;10.00;;
41466;SDS011;27205;53.690;19.948;2022-10-17T05:53:24;10.50;;;9.60;;
41466;SDS011;27205;53.690;19.948;2022-10-17T05:58:27;10.50;;;9.00;;
41466;SDS011;27205;53.690;19.948;2022-10-17T06:03:49;17.90;;;15.20;;
41466;SDS011;27205;53.690;19.948;2022-10-17T06:08:51;14.40;;;13.20;;
41466;SDS011;27205;53.690;19.948;2022-10-17T06:13:53;12.50;;;11.40;;
41466;SDS011;27205;53.690;19.948;2022-10-17T06:18:55;12.70;;;11.60;;
41466;SDS011;27205;53.690;19.948;2022-10-17T06:23:57;13.40;;;12.00;;
41466;SDS011;27205;53.690;19.948;2022-10-17T06:28:59;13.60;;;12.30;;
41466;SDS011;27205;53.690;19.948;2022-10-17T06:34:01;14.30;;;12.80;;
41466;SDS011;27205;53.690;19.948;2022-10-17T06:39:03;10.30;;;9.40;;
41466;SDS011;27205;53.690;19.948;2022-10-17T06:44:05;8.80;;;8.00;;
41466;SDS011;27205;53.690;19.948;2022-10-17T06:49:11;8.00;;;7.40;;
41466;SDS011;27205;53.690;19.948;2022-10-17T06:54:13;8.90;;;5.90;;
41466;SDS011;27205;53.690;19.948;2022-10-17T06:59:15;8.40;;;6.90;;
41466;SDS011;27205;53.690;19.948;2022-10-17T07:04:17;7.50;;;6.80;;
41466;SDS011;27205;53.690;19.948;2022-10-17T07:09:20;9.10;;;8.30;;
41466;SDS011;27205;53.690;19.948;2022-10-17T07:14:23;7.20;;;6.60;;
41466;SDS011;27205;53.690;19.948;2022-10-17T07:19:32;7.00;;;6.50;;
41466;SDS011;27205;53.690;19.948;2022-10-17T07:24:34;7.90;;;7.30;;
41466;SDS011;27205;53.690;19.948;2022-10-17T07:29:36;9.10;;;8.50;;
41466;SDS011;27205;53.690;19.948;2022-10-17T07:34:38;8.70;;;8.00;;
41466;SDS011;27205;53.690;19.948;2022-10-17T07:39:40;9.50;;;8.50;;
41466;SDS011;27205;53.690;19.948;2022-10-17T07:44:42;8.50;;;7.60;;
41466;SDS011;27205;53.690;19.948;2022-10-17T07:49:46;7.90;;;7.30;;
41466;SDS011;27205;53.690;19.948;2022-10-17T07:54:48;8.40;;;7.70;;
41466;SDS011;27205;53.690;19.948;2022-10-17T07:59:50;10.00;;;9.30;;
41466;SDS011;27205;53.690;19.948;2022-10-17T08:04:53;8.20;;;7.60;;
41466;SDS011;27205;53.690;19.948;2022-10-17T08:09:55;8.10;;;7.40;;
41466;SDS011;27205;53.690;19.948;2022-10-17T08:14:57;9.50;;;8.60;;
41466;SDS011;27205;53.690;19.948;2022-10-17T08:19:59;8.60;;;7.70;;
41466;SDS011;27205;53.690;19.948;2022-10-17T08:25:01;6.00;;;5.40;;
41466;SDS011;27205;53.690;19.948;2022-10-17T08:30:03;6.30;;;5.70;;
41466;SDS011;27205;53.690;19.948;2022-10-17T08:35:06;6.40;;;5.40;;
41466;SDS011;27205;53.690;19.948;2022-10-17T08:40:14;5.00;;;4.50;;
41466;SDS011;27205;53.690;19.948;2022-10-17T08:50:50;4.70;;;4.30;;
41466;SDS011;27205;53.690;19.948;2022-10-17T08:55:56;3.90;;;3.60;;
41466;SDS011;27205;53.690;19.948;2022-10-17T09:01:49;4.50;;;4.20;;
41466;SDS011;27205;53.690;19.948;2022-10-17T09:06:46;4.80;;;4.40;;
41466;SDS011;27205;53.690;19.948;2022-10-17T09:12:01;4.60;;;4.20;;
41466;SDS011;27205;53.690;19.948;2022-10-17T09:33:41;4.30;;;3.60;;
41466;SDS011;27205;53.690;19.948;2022-10-17T09:39:01;3.20;;;2.90;;
41466;SDS011;27205;53.690;19.948;2022-10-17T09:44:20;6.70;;;5.80;;
41466;SDS011;27205;53.690;19.948;2022-10-17T09:49:28;2.20;;;2.00;;
41466;SDS011;27205;53.690;19.948;2022-10-17T09:54:49;1.60;;;1.50;;
41466;SDS011;27205;53.690;19.948;2022-10-17T09:59:58;5.10;;;2.00;;
41466;SDS011;27205;53.690;19.948;2022-10-17T10:05:18;1.90;;;1.80;;
41466;SDS011;27205;53.690;19.948;2022-10-17T10:10:23;4.00;;;2.30;;
41466;SDS011;27205;53.690;19.948;2022-10-17T10:15:34;5.00;;;1.80;;
41466;SDS011;27205;53.690;19.948;2022-10-17T10:20:38;1.30;;;1.30;;
41466;SDS011;27205;53.690;19.948;2022-10-17T10:25:51;1.60;;;1.50;;
41466;SDS011;27205;53.690;19.948;2022-10-17T10:30:57;2.00;;;1.90;;
41466;SDS011;27205;53.690;19.948;2022-10-17T10:36:03;1.80;;;1.60;;
41466;SDS011;27205;53.690;19.948;2022-10-17T10:41:09;2.70;;;2.10;;
41466;SDS011;27205;53.690;19.948;2022-10-17T10:46:30;2.40;;;2.30;;
41466;SDS011;27205;53.690;19.948;2022-10-17T10:51:50;1.90;;;1.40;;
41466;SDS011;27205;53.690;19.948;2022-10-17T10:56:53;1.90;;;1.80;;
41466;SDS011;27205;53.690;19.948;2022-10-17T11:07:09;2.10;;;1.70;;
41466;SDS011;27205;53.690;19.948;2022-10-17T11:12:17;1.80;;;1.70;;
41466;SDS011;27205;53.690;19.948;2022-10-17T11:22:51;3.00;;;1.80;;
41466;SDS011;27205;53.690;19.948;2022-10-17T11:27:58;3.10;;;1.90;;
41466;SDS011;27205;53.690;19.948;2022-10-17T11:33:06;5.80;;;2.40;;
41466;SDS011;27205;53.690;19.948;2022-10-17T11:48:40;3.40;;;2.10;;
41466;SDS011;27205;53.690;19.948;2022-10-17T11:59:08;2.40;;;2.20;;
41466;SDS011;27205;53.690;19.948;2022-10-17T12:04:20;3.40;;;2.50;;
41466;SDS011;27205;53.690;19.948;2022-10-17T12:09:37;3.80;;;2.50;;
41466;SDS011;27205;53.690;19.948;2022-10-17T12:14:46;2.80;;;2.60;;
41466;SDS011;27205;53.690;19.948;2022-10-17T12:19:48;3.10;;;2.80;;
41466;SDS011;27205;53.690;19.948;2022-10-17T12:24:54;3.10;;;2.90;;
41466;SDS011;27205;53.690;19.948;2022-10-17T12:30:21;4.30;;;3.30;;
41466;SDS011;27205;53.690;19.948;2022-10-17T12:35:25;3.50;;;3.30;;
41466;SDS011;27205;53.690;19.948;2022-10-17T12:45:43;4.80;;;4.50;;
41466;SDS011;27205;53.690;19.948;2022-10-17T12:51:00;8.20;;;5.00;;
41466;SDS011;27205;53.690;19.948;2022-10-17T13:01:47;5.60;;;5.20;;
41466;SDS011;27205;53.690;19.948;2022-10-17T13:06:54;5.80;;;5.40;;
41466;SDS011;27205;53.690;19.948;2022-10-17T13:12:00;5.30;;;4.90;;
41466;SDS011;27205;53.690;19.948;2022-10-17T13:17:21;6.30;;;5.80;;
41466;SDS011;27205;53.690;19.948;2022-10-17T13:22:25;6.30;;;5.70;;
41466;SDS011;27205;53.690;19.948;2022-10-17T13:27:31;7.00;;;6.40;;
41466;SDS011;27205;53.690;19.948;2022-10-17T13:32:35;6.30;;;5.90;;
41466;SDS011;27205;53.690;19.948;2022-10-17T13:37:40;6.60;;;6.10;;
41466;SDS011;27205;53.690;19.948;2022-10-17T13:42:44;6.70;;;6.10;;
41466;SDS011;27205;53.690;19.948;2022-10-17T13:53:04;6.40;;;5.90;;
41466;SDS011;27205;53.690;19.948;2022-10-17T13:58:16;6.70;;;6.00;;
41466;SDS011;27205;53.690;19.948;2022-10-17T14:03:20;8.30;;;5.90;;
41466;SDS011;27205;53.690;19.948;2022-10-17T14:48:18;9.00;;;8.30;;
41466;SDS011;27205;53.690;19.948;2022-10-17T14:53:24;9.80;;;9.00;;
41466;SDS011;27205;53.690;19.948;2022-10-17T14:58:32;10.70;;;9.80;;
41466;SDS011;27205;53.690;19.948;2022-10-17T15:03:35;10.50;;;9.70;;
41466;SDS011;27205;53.690;19.948;2022-10-17T15:08:38;10.60;;;9.70;;
41466;SDS011;27205;53.690;19.948;2022-10-17T15:18:47;11.70;;;10.90;;
41466;SDS011;27205;53.690;19.948;2022-10-17T15:23:51;12.00;;;11.00;;
41466;SDS011;27205;53.690;19.948;2022-10-17T15:33:57;14.20;;;13.20;;
41466;SDS011;27205;53.690;19.948;2022-10-17T15:39:01;13.60;;;12.60;;
41466;SDS011;27205;53.690;19.948;2022-10-17T15:44:05;13.90;;;12.70;;
41466;SDS011;27205;53.690;19.948;2022-10-17T15:49:10;16.00;;;14.50;;
41466;SDS011;27205;53.690;19.948;2022-10-17T15:54:15;14.90;;;13.70;;
41466;SDS011;27205;53.690;19.948;2022-10-17T15:59:19;16.20;;;15.00;;
41466;SDS011;27205;53.690;19.948;2022-10-17T16:04:26;14.70;;;13.60;;
41466;SDS011;27205;53.690;19.948;2022-10-17T16:09:30;16.00;;;14.70;;
41466;SDS011;27205;53.690;19.948;2022-10-17T16:14:35;17.50;;;15.90;;
41466;SDS011;27205;53.690;19.948;2022-10-17T16:19:38;16.30;;;15.00;;
41466;SDS011;27205;53.690;19.948;2022-10-17T16:24:41;15.90;;;14.70;;
41466;SDS011;27205;53.690;19.948;2022-10-17T16:29:44;15.90;;;14.80;;
41466;SDS011;27205;53.690;19.948;2022-10-17T16:34:47;16.80;;;15.50;;
41466;SDS011;27205;53.690;19.948;2022-10-17T16:39:51;18.50;;;17.10;;
41466;SDS011;27205;53.690;19.948;2022-10-17T16:44:55;16.00;;;14.70;;
41466;SDS011;27205;53.690;19.948;2022-10-17T16:49:58;16.60;;;15.40;;
41466;SDS011;27205;53.690;19.948;2022-10-17T16:55:02;16.40;;;15.20;;
41466;SDS011;27205;53.690;19.948;2022-10-17T17:00:05;14.40;;;13.30;;
41466;SDS011;27205;53.690;19.948;2022-10-17T17:05:09;17.10;;;15.60;;
41466;SDS011;27205;53.690;19.948;2022-10-17T17:10:13;16.30;;;14.90;;
41466;SDS011;27205;53.690;19.948;2022-10-17T17:15:16;16.40;;;15.20;;
41466;SDS011;27205;53.690;19.948;2022-10-17T17:20:19;17.20;;;15.90;;
41466;SDS011;27205;53.690;19.948;2022-10-17T17:25:23;16.70;;;14.80;;
41466;SDS011;27205;53.690;19.948;2022-10-17T17:30:26;15.20;;;14.10;;
41466;SDS011;27205;53.690;19.948;2022-10-17T17:35:31;15.20;;;14.00;;
41466;SDS011;27205;53.690;19.948;2022-10-17T17:40:34;13.10;;;12.00;;
41466;SDS011;27205;53.690;19.948;2022-10-17T17:45:37;14.80;;;13.80;;
41466;SDS011;27205;53.690;19.948;2022-10-17T17:50:42;14.80;;;13.60;;
41466;SDS011;27205;53.690;19.948;2022-10-17T17:55:45;13.50;;;12.40;;
41466;SDS011;27205;53.690;19.948;2022-10-17T18:00:49;14.50;;;13.40;;
41466;SDS011;27205;53.690;19.948;2022-10-17T18:05:52;15.40;;;14.10;;
41466;SDS011;27205;53.690;19.948;2022-10-17T18:10:56;14.70;;;13.50;;
41466;SDS011;27205;53.690;19.948;2022-10-17T18:16:00;13.50;;;12.60;;
41466;SDS011;27205;53.690;19.948;2022-10-17T18:21:04;15.10;;;13.80;;
41466;SDS011;27205;53.690;19.948;2022-10-17T18:26:08;14.10;;;13.00;;
41466;SDS011;27205;53.690;19.948;2022-10-17T18:31:13;13.20;;;12.20;;
41466;SDS011;27205;53.690;19.948;2022-10-17T18:36:20;13.80;;;12.70;;
41466;SDS011;27205;53.690;19.948;2022-10-17T18:41:24;14.10;;;12.90;;
41466;SDS011;27205;53.690;19.948;2022-10-17T18:46:29;14.10;;;12.90;;
41466;SDS011;27205;53.690;19.948;2022-10-17T18:51:38;14.40;;;13.20;;
41466;SDS011;27205;53.690;19.948;2022-10-17T18:56:42;13.40;;;12.40;;
41466;SDS011;27205;53.690;19.948;2022-10-17T19:01:46;14.00;;;13.00;;
41466;SDS011;27205;53.690;19.948;2022-10-17T19:06:50;15.20;;;13.80;;
41466;SDS011;27205;53.690;19.948;2022-10-17T19:11:53;13.10;;;12.20;;
41466;SDS011;27205;53.690;19.948;2022-10-17T19:16:57;14.60;;;13.50;;
41466;SDS011;27205;53.690;19.948;2022-10-17T19:22:01;15.20;;;14.00;;
41466;SDS011;27205;53.690;19.948;2022-10-17T19:27:05;14.70;;;13.40;;
41466;SDS011;27205;53.690;19.948;2022-10-17T19:32:09;14.70;;;13.50;;
41466;SDS011;27205;53.690;19.948;2022-10-17T19:37:19;13.70;;;12.70;;
41466;SDS011;27205;53.690;19.948;2022-10-17T19:42:22;15.60;;;14.30;;
41466;SDS011;27205;53.690;19.948;2022-10-17T19:47:26;14.50;;;13.40;;
41466;SDS011;27205;53.690;19.948;2022-10-17T19:52:29;12.70;;;11.70;;
41466;SDS011;27205;53.690;19.948;2022-10-17T19:57:33;13.90;;;12.60;;
41466;SDS011;27205;53.690;19.948;2022-10-17T20:02:38;13.60;;;12.50;;
41466;SDS011;27205;53.690;19.948;2022-10-17T20:07:41;13.50;;;11.80;;
41466;SDS011;27205;53.690;19.948;2022-10-17T20:12:44;12.80;;;11.90;;
41466;SDS011;27205;53.690;19.948;2022-10-17T21:03:16;12.00;;;10.90;;
41466;SDS011;27205;53.690;19.948;2022-10-17T21:08:18;11.90;;;10.90;;
41466;SDS011;27205;53.690;19.948;2022-10-17T21:13:20;13.60;;;12.40;;
41466;SDS011;27205;53.690;19.948;2022-10-17T21:18:22;12.30;;;11.40;;
41466;SDS011;27205;53.690;19.948;2022-10-17T21:23:24;12.60;;;11.60;;
41466;SDS011;27205;53.690;19.948;2022-10-17T21:28:26;13.60;;;12.50;;
41466;SDS011;27205;53.690;19.948;2022-10-17T21:33:28;13.30;;;12.40;;
41466;SDS011;27205;53.690;19.948;2022-10-17T21:38:30;12.60;;;11.50;;
41466;SDS011;27205;53.690;19.948;2022-10-17T21:43:32;13.10;;;11.90;;
41466;SDS011;27205;53.690;19.948;2022-10-17T21:48:35;13.20;;;12.10;;
41466;SDS011;27205;53.690;19.948;2022-10-17T21:53:36;13.30;;;12.30;;
41466;SDS011;27205;53.690;19.948;2022-10-17T21:58:39;13.60;;;12.60;;
41466;SDS011;27205;53.690;19.948;2022-10-17T22:03:42;13.10;;;12.10;;
41466;SDS011;27205;53.690;19.948;2022-10-17T22:08:48;13.10;;;12.00;;
41466;SDS011;27205;53.690;19.948;2022-10-17T22:13:58;13.60;;;12.60;;
41466;SDS011;27205;53.690;19.948;2022-10-17T22:19:02;11.90;;;10.90;;
41466;SDS011;27205;53.690;19.948;2022-10-17T22:24:09;14.10;;;13.10;;
41466;SDS011;27205;53.690;19.948;2022-10-17T22:29:13;14.50;;;13.30;;
41466;SDS011;27205;53.690;19.948;2022-10-17T22:34:16;13.00;;;12.00;;
41466;SDS011;27205;53.690;19.948;2022-10-17T22:39:19;13.60;;;12.50;;
41466;SDS011;27205;53.690;19.948;2022-10-17T22:44:20;13.60;;;12.50;;
41466;SDS011;27205;53.690;19.948;2022-10-17T22:49:22;15.80;;;14.40;;
41466;SDS011;27205;53.690;19.948;2022-10-17T22:54:24;12.70;;;11.60;;
41466;SDS011;27205;53.690;19.948;2022-10-17T22:59:26;14.00;;;12.90;;
41466;SDS011;27205;53.690;19.948;2022-10-17T23:04:28;15.10;;;13.80;;
41466;SDS011;27205;53.690;19.948;2022-10-17T23:09:30;14.30;;;13.10;;
41466;SDS011;27205;53.690;19.948;2022-10-17T23:14:32;13.50;;;12.40;;
41466;SDS011;27205;53.690;19.948;2022-10-17T23:19:38;13.40;;;12.40;;
41466;SDS011;27205;53.690;19.948;2022-10-17T23:24:40;14.30;;;13.20;;
41466;SDS011;27205;53.690;19.948;2022-10-17T23:29:42;14.30;;;13.20;;
41466;SDS011;27205;53.690;19.948;2022-10-17T23:34:44;14.90;;;13.80;;
41466;SDS011;27205;53.690;19.948;2022-10-17T23:39:46;13.70;;;12.60;;
41466;SDS011;27205;53.690;19.948;2022-10-17T23:44:48;15.30;;;14.00;;
41466;SDS011;27205;53.690;19.948;2022-10-17T23:49:50;14.00;;;13.00;;
41466;SDS011;27205;53.690;19.948;2022-10-17T23:54:52;15.20;;;13.80;;
41466;SDS011;27205;53.690;19.948;2022-10-17T23:59:54;15.50;;;14.20;;
